createdAt,value
2023-03-20T00:01:56.846Z,72.34
2023-03-20T00:04:23.719Z,73.53
2023-03-20T00:06:50.819Z,72.35
2023-03-20T00:09:17.695Z,72.64
2023-03-20T00:11:52.614Z,71.57
2023-03-20T00:14:24.051Z,72.54
2023-03-20T00:16:51.724Z,72.74
2023-03-20T00:19:27.333Z,73.31
2023-03-20T00:21:55.712Z,73.16
2023-03-20T00:24:23.306Z,73.86
2023-03-20T00:26:52.158Z,74.00
2023-03-20T00:29:26.303Z,74.91
2023-03-20T00:31:53.974Z,73.84
2023-03-20T00:34:23.072Z,73.46
2023-03-20T00:36:50.343Z,73.65
2023-03-20T00:39:17.268Z,73.38
2023-03-20T00:41:46.784Z,73.02
2023-03-20T00:44:28.124Z,71.95
2023-03-20T00:47:00.381Z,73.63
2023-03-20T00:49:30.221Z,73.51
2023-03-20T00:51:57.180Z,74.18
2023-03-20T00:54:24.336Z,73.93
2023-03-20T00:56:59.339Z,73.33
2023-03-20T01:00:07.649Z,73.18
2023-03-20T01:02:35.192Z,74.51
2023-03-20T01:05:02.452Z,75.58
2023-03-20T01:07:29.329Z,76.84
2023-03-20T01:09:56.278Z,76.52
2023-03-20T01:12:23.214Z,76.22
2023-03-20T01:14:53.583Z,76.48
2023-03-20T01:17:22.592Z,76.12
2023-03-20T01:19:49.463Z,75.97
2023-03-20T01:22:16.324Z,75.45
2023-03-20T01:24:43.264Z,74.88
2023-03-20T01:27:18.048Z,75.19
2023-03-20T01:29:45.399Z,75.27
2023-03-20T01:32:14.430Z,75.26
2023-03-20T01:34:41.279Z,74.71
2023-03-20T01:37:22.878Z,74.66
2023-03-20T01:39:49.771Z,74.69
2023-03-20T01:42:16.998Z,74.46
2023-03-20T01:44:44.378Z,73.74
2023-03-20T01:47:20.291Z,73.02
2023-03-20T01:50:22.954Z,72.06
2023-03-20T01:53:03.724Z,73.36
2023-03-20T01:55:31.659Z,73.89
2023-03-20T01:58:04.846Z,73.60
2023-03-20T02:00:32.564Z,74.30
2023-03-20T02:02:59.720Z,74.30
2023-03-20T02:05:26.969Z,74.12
2023-03-20T02:08:17.053Z,74.08
2023-03-20T02:10:46.883Z,74.51
2023-03-20T02:13:16.304Z,73.98
2023-03-20T02:16:04.054Z,73.93
2023-03-20T02:18:32.184Z,73.88
2023-03-20T02:21:01.908Z,74.07
2023-03-20T02:23:37.768Z,73.40
2023-03-20T02:26:46.218Z,72.47
2023-03-20T02:29:39.816Z,73.27
2023-03-20T02:32:26.700Z,73.01
2023-03-20T02:35:12.110Z,73.98
2023-03-20T02:37:47.584Z,74.30
2023-03-20T02:40:43.132Z,73.70
2023-03-20T02:43:30.636Z,74.33
2023-03-20T02:46:24.013Z,73.77
2023-03-20T02:49:18.340Z,73.68
2023-03-20T02:51:53.985Z,73.20
2023-03-20T02:54:38.898Z,72.84
2023-03-20T02:57:13.657Z,73.42
2023-03-20T02:59:54.486Z,73.81
2023-03-20T03:02:32.043Z,73.18
2023-03-20T03:05:04.829Z,73.58
2023-03-20T03:07:35.012Z,74.30
2023-03-20T03:10:12.664Z,73.97
2023-03-20T03:12:44.342Z,73.98
2023-03-20T03:15:19.868Z,74.58
2023-03-20T03:17:49.017Z,75.03
2023-03-20T03:20:30.817Z,74.85
2023-03-20T03:22:58.057Z,74.13
2023-03-20T03:25:28.904Z,74.68
2023-03-20T03:28:08.331Z,74.63
2023-03-20T03:30:39.751Z,74.76
2023-03-20T03:33:30.478Z,75.77
2023-03-20T03:36:13.854Z,76.19
2023-03-20T03:39:01.800Z,76.46
2023-03-20T03:41:49.844Z,75.77
2023-03-20T03:44:26.850Z,75.79
2023-03-20T03:47:24.537Z,75.95
2023-03-20T03:49:58.885Z,76.69
2023-03-20T03:52:28.869Z,76.30
2023-03-20T03:54:59.087Z,76.45
2023-03-20T03:57:36.723Z,77.02
2023-03-20T04:00:06.228Z,76.45
2023-03-20T04:02:34.510Z,76.99
2023-03-20T04:05:03.643Z,76.71
2023-03-20T04:07:30.772Z,77.42
2023-03-20T04:09:57.802Z,77.54
2023-03-20T04:12:45.452Z,77.34
2023-03-20T04:15:14.920Z,76.21
2023-03-20T04:17:42.479Z,75.32
2023-03-20T04:20:10.832Z,74.29
2023-03-20T04:22:37.668Z,73.94
2023-03-20T04:25:06.102Z,74.90
2023-03-20T04:27:33.045Z,75.73
2023-03-20T04:29:59.922Z,75.79
2023-03-20T04:32:26.743Z,75.55
2023-03-20T04:34:53.675Z,75.06
2023-03-20T04:37:20.514Z,74.25
2023-03-20T04:39:47.297Z,74.72
2023-03-20T04:42:14.244Z,74.48
2023-03-20T04:44:41.025Z,74.16
2023-03-20T04:47:07.772Z,71.92
2023-03-20T04:49:34.709Z,71.62
2023-03-20T04:52:01.572Z,71.86
2023-03-20T04:54:28.430Z,69.81
2023-03-20T04:56:55.328Z,68.94
2023-03-20T04:59:22.220Z,69.04
2023-03-20T05:01:49.046Z,69.77
2023-03-20T05:04:15.994Z,69.95
2023-03-20T05:06:42.914Z,70.20
2023-03-20T05:09:10.802Z,71.75
2023-03-20T05:11:37.760Z,71.99
2023-03-20T05:14:04.593Z,71.61
2023-03-20T05:16:31.512Z,70.71
2023-03-20T05:18:58.688Z,71.12
2023-03-20T05:21:25.485Z,70.71
2023-03-20T05:23:52.427Z,69.78
2023-03-20T05:26:19.383Z,71.28
2023-03-20T05:28:46.218Z,70.34
2023-03-20T05:31:13.095Z,70.77
2023-03-20T05:33:39.979Z,69.94
2023-03-20T05:36:07.568Z,68.09
2023-03-20T05:38:34.459Z,69.25
2023-03-20T05:41:02.258Z,68.38
2023-03-20T05:43:29.280Z,67.46
2023-03-20T05:45:56.862Z,65.54
2023-03-20T05:48:24.528Z,64.86
2023-03-20T05:50:51.624Z,63.21
2023-03-20T05:53:18.579Z,62.91
2023-03-20T05:55:45.735Z,59.98
2023-03-20T05:58:12.963Z,58.99
2023-03-20T06:00:40.064Z,57.55
2023-03-20T06:03:07.060Z,57.78
2023-03-20T06:05:35.437Z,59.23
2023-03-20T06:08:03.309Z,57.53
2023-03-20T06:10:30.354Z,54.24
2023-03-20T06:12:58.822Z,53.74
2023-03-20T06:15:25.666Z,54.77
2023-03-20T06:17:52.617Z,54.30
2023-03-20T06:20:19.528Z,53.38
2023-03-20T06:22:46.729Z,55.00
2023-03-20T06:25:13.853Z,56.21
2023-03-20T06:27:40.696Z,56.89
2023-03-20T06:30:08.258Z,59.20
2023-03-20T06:32:35.236Z,60.73
2023-03-20T06:35:02.181Z,60.78
2023-03-20T06:37:29.111Z,58.79
2023-03-20T06:39:56.230Z,60.40
2023-03-20T06:42:23.108Z,61.00
2023-03-20T06:44:50.054Z,59.58
2023-03-20T06:47:17.247Z,57.87
2023-03-20T06:49:45.823Z,56.98
2023-03-20T06:52:17.725Z,56.99
2023-03-20T06:54:44.796Z,53.44
2023-03-20T06:57:14.644Z,54.98
2023-03-20T06:59:42.159Z,56.01
2023-03-20T07:02:10.863Z,56.48
2023-03-20T07:04:37.977Z,58.75
2023-03-20T07:07:04.947Z,59.35
2023-03-20T07:09:31.851Z,56.50
2023-03-20T07:11:58.768Z,56.71
2023-03-20T07:14:25.839Z,55.53
2023-03-20T07:16:52.821Z,57.49
2023-03-20T07:19:20.334Z,59.38
2023-03-20T07:21:47.338Z,59.17
2023-03-20T07:24:14.439Z,57.97
2023-03-20T07:26:41.871Z,59.77
2023-03-20T07:29:08.911Z,58.31
2023-03-20T07:31:35.951Z,58.68
2023-03-20T07:34:02.899Z,59.99
2023-03-20T07:36:29.853Z,58.22
2023-03-20T07:38:56.728Z,58.16
2023-03-20T07:41:23.631Z,59.33
2023-03-20T07:43:50.497Z,56.65
2023-03-20T07:46:17.481Z,58.50
2023-03-20T07:48:44.299Z,59.59
2023-03-20T07:51:11.205Z,59.08
2023-03-20T07:53:38.028Z,57.17
2023-03-20T07:56:05.327Z,58.04
2023-03-20T07:58:32.337Z,56.45
2023-03-20T08:00:59.200Z,54.41
2023-03-20T08:03:26.226Z,56.02
2023-03-20T08:05:54.184Z,56.67
2023-03-20T08:08:21.863Z,57.61
2023-03-20T08:10:48.785Z,61.39
2023-03-20T08:13:16.379Z,55.30
2023-03-20T08:15:43.440Z,56.96
2023-03-20T08:18:10.246Z,57.66
2023-03-20T08:20:37.303Z,58.02
2023-03-20T08:23:04.167Z,55.54
2023-03-20T08:25:30.945Z,55.70
2023-03-20T08:27:57.868Z,55.21
2023-03-20T08:30:24.669Z,55.00
2023-03-20T08:32:51.500Z,56.27
2023-03-20T08:35:32.166Z,56.53
2023-03-20T08:38:00.389Z,57.85
2023-03-20T08:40:27.417Z,58.16
2023-03-20T08:42:54.249Z,57.93
2023-03-20T08:45:21.132Z,56.72
2023-03-20T08:47:48.608Z,57.16
2023-03-20T08:50:15.520Z,57.46
2023-03-20T08:52:42.291Z,57.10
2023-03-20T08:55:09.447Z,55.63
2023-03-20T08:57:36.702Z,54.46
2023-03-20T09:00:04.724Z,54.37
2023-03-20T09:02:31.767Z,55.30
2023-03-20T09:04:58.775Z,54.47
2023-03-20T09:07:25.548Z,54.05
2023-03-20T09:09:52.449Z,56.20
2023-03-20T09:12:19.295Z,56.10
2023-03-20T09:14:46.107Z,55.15
2023-03-20T09:17:13.121Z,54.90
2023-03-20T09:19:40.009Z,52.39
2023-03-20T09:22:06.936Z,52.57
2023-03-20T09:24:33.868Z,53.08
2023-03-20T09:27:03.427Z,55.81
2023-03-20T09:29:30.538Z,57.20
2023-03-20T09:31:57.419Z,59.48
2023-03-20T09:34:24.270Z,56.97
2023-03-20T09:36:51.126Z,56.47
2023-03-20T09:39:18.162Z,54.41
2023-03-20T09:41:57.224Z,54.09
2023-03-20T09:44:47.854Z,53.22
2023-03-20T09:47:21.222Z,52.03
2023-03-20T09:50:18.718Z,53.07
2023-03-20T09:52:55.722Z,52.96
2023-03-20T09:55:30.142Z,51.30
2023-03-20T09:58:03.314Z,51.90
2023-03-20T10:00:34.551Z,49.15
2023-03-20T10:03:06.717Z,49.45
2023-03-20T10:05:43.065Z,50.47
2023-03-20T10:08:16.364Z,49.26
2023-03-20T10:10:57.643Z,48.41
2023-03-20T10:13:30.317Z,46.62
2023-03-20T10:16:34.875Z,49.17
2023-03-20T10:19:25.969Z,51.01
2023-03-20T10:22:13.744Z,50.69
2023-03-20T10:24:47.825Z,50.42
2023-03-20T10:27:28.096Z,52.26
2023-03-20T10:30:24.146Z,51.69
2023-03-20T10:33:26.626Z,52.63
2023-03-20T10:36:17.952Z,51.66
2023-03-20T10:38:56.550Z,50.87
2023-03-20T10:41:29.575Z,47.88
2023-03-20T10:43:59.891Z,51.20
2023-03-20T10:46:31.959Z,51.35
2023-03-20T10:49:33.998Z,48.70
2023-03-20T10:52:04.903Z,46.46
2023-03-20T10:54:35.838Z,46.51
2023-03-20T10:57:05.386Z,47.26
2023-03-20T10:59:45.278Z,46.82
2023-03-20T11:02:14.139Z,46.92
2023-03-20T11:04:41.363Z,47.97
2023-03-20T11:07:20.121Z,46.24
2023-03-20T11:09:47.266Z,47.80
2023-03-20T11:12:20.720Z,49.68
2023-03-20T11:14:47.543Z,48.45
2023-03-20T11:17:14.463Z,50.29
2023-03-20T11:19:42.166Z,50.65
2023-03-20T11:22:23.158Z,49.60
2023-03-20T11:25:22.767Z,51.25
2023-03-20T11:27:49.719Z,46.38
2023-03-20T11:30:17.425Z,48.46
2023-03-20T11:32:50.475Z,46.49
2023-03-20T11:35:22.124Z,48.82
2023-03-20T11:37:51.596Z,46.28
2023-03-20T11:40:32.776Z,45.66
2023-03-20T11:43:06.596Z,46.35
2023-03-20T11:45:42.771Z,46.32
2023-03-20T11:48:21.496Z,44.74
2023-03-20T11:51:05.556Z,45.62
2023-03-20T11:53:37.688Z,45.68
2023-03-20T11:56:09.338Z,47.28
2023-03-20T11:58:39.955Z,46.08
2023-03-20T12:01:12.040Z,47.92
2023-03-20T12:03:55.474Z,47.60
2023-03-20T12:06:27.216Z,46.81
2023-03-20T12:09:05.952Z,46.25
2023-03-20T12:12:07.941Z,47.37
2023-03-20T12:14:43.522Z,48.20
2023-03-20T12:17:34.968Z,48.71
2023-03-20T12:20:15.955Z,47.86
2023-03-20T12:23:08.757Z,47.00
2023-03-20T12:25:53.915Z,46.76
2023-03-20T12:28:30.671Z,45.34
2023-03-20T12:31:06.333Z,45.62
2023-03-20T12:33:48.297Z,47.25
2023-03-20T12:36:18.344Z,48.67
2023-03-20T12:38:45.970Z,47.23
2023-03-20T12:41:20.131Z,46.37
2023-03-20T12:44:07.012Z,46.29
2023-03-20T12:47:10.986Z,44.09
2023-03-20T12:50:03.487Z,49.23
2023-03-20T12:53:02.726Z,45.41
2023-03-20T12:55:51.902Z,44.78
2023-03-20T12:58:21.607Z,46.18
2023-03-20T13:01:00.978Z,45.33
2023-03-20T13:03:48.021Z,45.52
2023-03-20T13:06:17.744Z,47.16
2023-03-20T13:09:03.086Z,44.46
2023-03-20T13:12:07.708Z,47.72
2023-03-20T13:14:52.706Z,47.35
2023-03-20T13:17:36.077Z,47.68
2023-03-20T13:20:24.294Z,45.85
2023-03-20T13:23:05.504Z,45.93
2023-03-20T13:26:01.065Z,47.58
2023-03-20T13:28:33.855Z,45.79
2023-03-20T13:31:21.240Z,46.97
2023-03-20T13:34:14.866Z,44.95
2023-03-20T13:37:22.025Z,45.82
2023-03-20T13:39:56.573Z,46.76
2023-03-20T13:42:29.848Z,46.48
2023-03-20T13:45:07.253Z,45.84
2023-03-20T13:47:36.431Z,46.39
2023-03-20T13:50:12.201Z,46.13
2023-03-20T13:52:45.877Z,45.98
2023-03-20T13:55:37.819Z,45.64
2023-03-20T13:58:55.414Z,47.32
2023-03-20T14:01:32.363Z,46.26
2023-03-20T14:04:00.889Z,42.29
2023-03-20T14:06:27.653Z,39.93
2023-03-20T14:08:55.045Z,42.11
2023-03-20T14:11:21.965Z,40.13
2023-03-20T14:13:58.115Z,40.48
2023-03-20T14:16:29.089Z,40.65
2023-03-20T14:19:20.910Z,39.65
2023-03-20T14:21:49.323Z,41.99
2023-03-20T14:24:17.952Z,42.50
2023-03-20T14:26:50.137Z,41.93
2023-03-20T14:29:16.935Z,43.31
2023-03-20T14:31:48.593Z,44.29
2023-03-20T14:34:22.916Z,43.92
2023-03-20T14:37:01.064Z,42.79
2023-03-20T14:39:39.771Z,44.07
2023-03-20T14:42:25.654Z,43.63
2023-03-20T14:45:14.000Z,43.47
2023-03-20T14:48:17.908Z,45.01
2023-03-20T14:51:22.980Z,44.99
2023-03-20T14:53:58.662Z,45.58
2023-03-20T14:56:29.734Z,45.59
2023-03-20T14:59:00.456Z,46.51
2023-03-20T15:01:39.662Z,47.08
2023-03-20T15:04:14.066Z,47.13
2023-03-20T15:06:54.594Z,46.74
2023-03-20T15:09:25.222Z,46.15
2023-03-20T15:11:53.923Z,47.09
2023-03-20T15:14:27.737Z,47.24
2023-03-20T15:17:00.423Z,47.52
2023-03-20T15:19:28.924Z,48.13
2023-03-20T15:21:56.541Z,48.15
2023-03-20T15:24:26.248Z,49.20
2023-03-20T15:27:02.808Z,48.92
2023-03-20T15:29:31.722Z,49.32
2023-03-20T15:32:13.277Z,49.18
2023-03-20T15:34:42.225Z,48.57
2023-03-20T15:37:16.026Z,49.28
2023-03-20T15:39:48.756Z,49.81
2023-03-20T15:42:19.561Z,50.33
2023-03-20T15:44:48.043Z,50.83
2023-03-20T15:47:18.015Z,50.38
2023-03-20T15:49:50.482Z,50.90
2023-03-20T15:52:53.491Z,50.95
2023-03-20T15:55:23.241Z,50.89
2023-03-20T15:57:51.173Z,51.75
2023-03-20T16:00:25.887Z,50.96
2023-03-20T16:02:53.829Z,51.57
2023-03-20T16:05:27.494Z,52.44
2023-03-20T16:07:57.408Z,52.38
2023-03-20T16:10:33.273Z,52.21
2023-03-20T16:13:00.580Z,51.54
2023-03-20T16:15:33.085Z,52.53
2023-03-20T16:18:04.067Z,52.11
2023-03-20T16:20:39.364Z,51.92
2023-03-20T16:23:08.992Z,52.03
2023-03-20T16:25:37.232Z,52.09
2023-03-20T16:28:05.790Z,51.69
2023-03-20T16:30:34.283Z,52.36
2023-03-20T16:33:07.126Z,52.56
2023-03-20T16:35:39.279Z,52.88
2023-03-20T16:38:27.682Z,52.20
2023-03-20T16:41:22.749Z,52.86
2023-03-20T16:43:51.254Z,53.91
2023-03-20T16:46:22.687Z,53.83
2023-03-20T16:48:52.246Z,54.36
2023-03-20T16:51:22.831Z,54.69
2023-03-20T16:53:57.587Z,54.80
2023-03-20T16:56:42.714Z,54.81
2023-03-20T16:59:11.886Z,54.48
2023-03-20T17:01:45.542Z,53.97
2023-03-20T17:04:32.722Z,54.36
2023-03-20T17:07:05.694Z,53.80
2023-03-20T17:09:32.933Z,54.11
2023-03-20T17:12:11.889Z,54.03
2023-03-20T17:14:39.052Z,54.54
2023-03-20T17:17:22.131Z,54.98
2023-03-20T17:19:49.852Z,54.79
2023-03-20T17:22:20.450Z,55.24
2023-03-20T17:24:48.143Z,55.66
2023-03-20T17:27:17.313Z,55.94
2023-03-20T17:29:45.333Z,57.16
2023-03-20T17:32:14.686Z,58.06
2023-03-20T17:34:42.104Z,58.12
2023-03-20T17:37:15.036Z,58.28
2023-03-20T17:39:42.299Z,57.29
2023-03-20T17:42:19.776Z,57.48
2023-03-20T17:44:48.017Z,58.35
2023-03-20T17:47:21.013Z,57.70
2023-03-20T17:49:48.921Z,56.76
2023-03-20T17:52:18.302Z,57.72
2023-03-20T17:54:46.043Z,57.26
2023-03-20T17:57:21.075Z,56.75
2023-03-20T17:59:50.860Z,56.38
2023-03-20T18:02:19.347Z,55.39
2023-03-20T18:04:47.516Z,56.04
2023-03-20T18:07:15.987Z,55.86
2023-03-20T18:09:43.495Z,55.96
2023-03-20T18:12:14.999Z,56.05
2023-03-20T18:14:42.787Z,57.06
2023-03-20T18:17:12.932Z,57.41
2023-03-20T18:19:40.221Z,57.79
2023-03-20T18:22:07.543Z,57.84
2023-03-20T18:24:34.590Z,58.60
2023-03-20T18:27:01.661Z,58.74
2023-03-20T18:29:28.887Z,59.27
2023-03-20T18:31:56.014Z,58.73
2023-03-20T18:34:22.868Z,60.16
2023-03-20T18:36:49.762Z,60.29
2023-03-20T18:39:22.289Z,60.04
2023-03-20T18:41:49.975Z,60.04
2023-03-20T18:44:16.874Z,61.34
2023-03-20T18:46:43.900Z,61.80
2023-03-20T18:49:20.672Z,62.16
2023-03-20T18:51:47.619Z,62.66
2023-03-20T18:54:14.775Z,62.02
2023-03-20T18:56:41.669Z,61.48
2023-03-20T18:59:13.070Z,61.50
2023-03-20T19:01:40.249Z,61.35
2023-03-20T19:04:07.501Z,60.88
2023-03-20T19:06:34.556Z,60.34
2023-03-20T19:09:04.085Z,60.12
2023-03-20T19:11:30.864Z,59.11
2023-03-20T19:13:57.731Z,58.83
2023-03-20T19:16:27.578Z,58.39
2023-03-20T19:18:56.355Z,59.54
2023-03-20T19:21:23.181Z,60.08
2023-03-20T19:23:49.923Z,60.12
2023-03-20T19:26:19.056Z,60.22
2023-03-20T19:28:47.518Z,59.45
2023-03-20T19:31:15.274Z,60.94
2023-03-20T19:33:42.174Z,61.19
2023-03-20T19:36:28.637Z,60.92
2023-03-20T19:38:57.538Z,61.06
2023-03-20T19:41:25.856Z,61.13
2023-03-20T19:43:55.498Z,60.72
2023-03-20T19:46:41.679Z,60.89
2023-03-20T19:49:20.371Z,61.18
2023-03-20T19:51:48.555Z,61.19
2023-03-20T19:54:16.038Z,61.94
2023-03-20T19:56:43.665Z,61.95
2023-03-20T19:59:10.897Z,61.83
2023-03-20T20:01:37.962Z,61.76
2023-03-20T20:04:04.957Z,61.93
2023-03-20T20:06:33.117Z,61.87
2023-03-20T20:09:01.587Z,61.46
2023-03-20T20:11:29.048Z,61.06
2023-03-20T20:14:14.459Z,61.75
2023-03-20T20:16:41.978Z,62.42
2023-03-20T20:19:10.116Z,61.65
2023-03-20T20:24:24.407Z,60.94
2023-03-20T20:26:59.959Z,60.97
2023-03-20T20:29:34.524Z,59.87
2023-03-20T20:32:02.019Z,60.59
2023-03-20T20:40:04.700Z,60.00
2023-03-20T20:42:31.935Z,60.03
2023-03-20T20:44:58.778Z,59.07
2023-03-20T20:47:25.650Z,59.57
2023-03-20T20:49:52.832Z,59.60
2023-03-20T20:52:19.792Z,58.99
2023-03-20T20:54:46.892Z,58.43
2023-03-20T20:57:13.897Z,58.92
2023-03-20T20:59:41.351Z,58.76
2023-03-20T21:02:10.351Z,58.80
2023-03-20T21:04:41.815Z,57.47
2023-03-20T21:07:13.168Z,57.81
2023-03-20T21:09:41.027Z,56.94
2023-03-20T21:12:08.930Z,57.46
2023-03-20T21:14:36.106Z,57.11
2023-03-20T21:17:04.045Z,57.49
2023-03-20T21:19:35.008Z,57.12
2023-03-20T21:22:02.121Z,57.49
2023-03-20T21:24:32.663Z,57.85
2023-03-20T21:27:00.999Z,57.36
2023-03-20T21:29:27.911Z,57.07
2023-03-20T21:31:54.946Z,56.53
2023-03-20T21:34:21.909Z,56.26
2023-03-20T21:36:49.431Z,56.33
2023-03-20T21:39:17.823Z,60.36
2023-03-20T21:41:45.197Z,62.27
2023-03-20T21:44:17.018Z,62.38
2023-03-20T21:47:33.149Z,63.75
2023-03-20T21:56:05.440Z,65.66
2023-03-20T22:04:06.176Z,63.42
2023-03-20T22:15:23.187Z,62.41
2023-03-20T22:21:03.958Z,62.36
2023-03-20T22:29:32.709Z,60.83
2023-03-20T22:32:35.203Z,60.63
2023-03-20T22:35:15.969Z,61.52
2023-03-20T22:43:15.051Z,60.70
2023-03-20T22:45:38.518Z,60.06
2023-03-20T22:48:14.656Z,60.85
2023-03-20T22:50:41.733Z,61.47
2023-03-20T22:53:08.556Z,61.62
2023-03-20T22:55:35.577Z,61.94
2023-03-20T22:58:08.103Z,61.77
2023-03-20T23:00:36.604Z,61.59
2023-03-20T23:03:33.707Z,61.22
2023-03-20T23:05:53.058Z,60.74
2023-03-20T23:08:20.293Z,60.83
2023-03-20T23:10:49.495Z,61.37
2023-03-20T23:13:17.263Z,63.52
2023-03-20T23:15:48.216Z,63.09
2023-03-20T23:21:41.916Z,62.68
2023-03-20T23:24:09.048Z,61.69
2023-03-20T23:26:35.887Z,61.43
2023-03-20T23:29:02.989Z,61.17
2023-03-20T23:31:29.871Z,60.94
2023-03-20T23:33:58.173Z,61.40
2023-03-20T23:36:35.988Z,61.30
2023-03-20T23:39:06.605Z,60.67
2023-03-20T23:42:04.595Z,60.98
2023-03-20T23:44:20.909Z,60.96
2023-03-20T23:46:48.454Z,61.02
2023-03-20T23:49:16.084Z,61.09
2023-03-20T23:51:42.959Z,61.44
2023-03-20T23:54:09.900Z,61.15
2023-03-20T23:56:36.750Z,61.21
2023-03-20T23:59:14.943Z,61.32
